createdAt,value
2023-03-07T00:01:05.291Z,69.66
2023-03-07T00:03:32.584Z,69.31
2023-03-07T00:06:07.642Z,69.30
2023-03-07T00:08:35.038Z,68.81
2023-03-07T00:11:07.672Z,68.97
2023-03-07T00:13:36.647Z,68.60
2023-03-07T00:16:09.121Z,68.84
2023-03-07T00:18:36.459Z,68.62
2023-03-07T00:21:10.246Z,68.74
2023-03-07T00:23:40.040Z,68.53
2023-03-07T00:26:18.364Z,68.31
2023-03-07T00:28:51.513Z,67.95
2023-03-07T00:31:19.800Z,68.05
2023-03-07T00:33:46.842Z,67.73
2023-03-07T00:36:20.173Z,68.04
2023-03-07T00:38:47.626Z,68.10
2023-03-07T00:41:27.587Z,68.15
2023-03-07T00:43:55.914Z,68.03
2023-03-07T00:46:25.148Z,67.88
2023-03-07T00:48:52.285Z,67.81
2023-03-07T00:51:21.375Z,67.81
2023-03-07T00:53:48.520Z,67.96
2023-03-07T00:56:24.632Z,67.96
2023-03-07T00:58:52.282Z,68.06
2023-03-07T01:01:24.873Z,68.45
2023-03-07T01:03:56.061Z,68.57
2023-03-07T01:06:32.459Z,68.98
2023-03-07T01:09:07.293Z,69.11
2023-03-07T01:11:35.738Z,69.32
2023-03-07T01:14:05.192Z,69.43
2023-03-07T01:16:35.444Z,69.78
2023-03-07T01:19:06.460Z,70.00
2023-03-07T01:21:40.577Z,70.02
2023-03-07T01:24:12.411Z,70.57
2023-03-07T01:26:39.317Z,70.66
2023-03-07T01:29:07.518Z,71.11
2023-03-07T01:31:35.052Z,71.48
2023-03-07T01:34:02.972Z,72.01
2023-03-07T01:36:33.493Z,71.80
2023-03-07T01:39:07.844Z,72.05
2023-03-07T01:41:38.053Z,72.20
2023-03-07T01:44:19.582Z,71.95
2023-03-07T01:46:54.507Z,72.15
2023-03-07T01:49:33.061Z,72.72
2023-03-07T01:52:02.703Z,72.79
2023-03-07T01:54:33.163Z,72.56
2023-03-07T01:57:03.161Z,72.71
2023-03-07T01:59:38.661Z,72.96
2023-03-07T02:02:11.839Z,73.14
2023-03-07T02:05:06.180Z,73.07
2023-03-07T02:07:40.764Z,73.48
2023-03-07T02:10:09.338Z,74.44
2023-03-07T02:12:36.165Z,74.78
2023-03-07T02:15:04.296Z,75.01
2023-03-07T02:17:32.198Z,75.17
2023-03-07T02:20:24.173Z,75.35
2023-03-07T02:22:51.727Z,75.81
2023-03-07T02:25:42.594Z,76.14
2023-03-07T02:28:13.208Z,76.50
2023-03-07T02:30:56.983Z,76.53
2023-03-07T02:33:25.072Z,77.25
2023-03-07T02:35:58.735Z,77.91
2023-03-07T02:38:26.535Z,78.49
2023-03-07T02:40:55.319Z,78.67
2023-03-07T02:43:23.214Z,79.19
2023-03-07T02:45:50.274Z,79.59
2023-03-07T02:48:17.407Z,80.14
2023-03-07T02:50:44.237Z,80.26
2023-03-07T02:53:11.080Z,80.78
2023-03-07T02:55:37.923Z,80.79
2023-03-07T02:58:04.801Z,81.31
2023-03-07T03:00:31.743Z,81.62
2023-03-07T03:02:58.630Z,81.62
2023-03-07T03:05:25.420Z,81.77
2023-03-07T03:07:52.528Z,82.23
2023-03-07T03:10:19.568Z,83.24
2023-03-07T03:12:46.954Z,83.27
2023-03-07T03:15:13.829Z,83.51
2023-03-07T03:17:42.209Z,83.62
2023-03-07T03:20:12.136Z,83.71
2023-03-07T03:22:40.576Z,84.03
2023-03-07T03:25:13.576Z,84.37
2023-03-07T03:27:41.847Z,84.52
2023-03-07T03:30:13.910Z,84.98
2023-03-07T03:32:41.574Z,85.47
2023-03-07T03:35:09.076Z,84.63
2023-03-07T03:37:35.940Z,84.61
2023-03-07T03:40:04.726Z,85.22
2023-03-07T03:42:31.614Z,85.06
2023-03-07T03:44:58.435Z,85.24
2023-03-07T03:47:25.297Z,85.24
2023-03-07T03:49:52.119Z,85.49
2023-03-07T03:52:19.479Z,85.93
2023-03-07T03:54:46.328Z,85.96
2023-03-07T03:57:17.725Z,85.75
2023-03-07T03:59:45.069Z,85.91
2023-03-07T04:02:11.954Z,86.42
2023-03-07T04:04:39.401Z,86.10
2023-03-07T04:07:06.209Z,86.39
2023-03-07T04:09:33.151Z,86.59
2023-03-07T04:11:59.970Z,86.18
2023-03-07T04:14:26.791Z,86.59
2023-03-07T04:16:53.759Z,86.72
2023-03-07T04:19:22.027Z,86.25
2023-03-07T04:21:49.003Z,86.05
2023-03-07T04:24:15.810Z,86.34
2023-03-07T04:26:42.643Z,86.02
2023-03-07T04:29:09.857Z,86.29
2023-03-07T04:31:36.734Z,86.09
2023-03-07T04:34:03.593Z,86.89
2023-03-07T04:36:30.387Z,86.31
2023-03-07T04:38:57.210Z,86.22
2023-03-07T04:41:28.101Z,85.71
2023-03-07T04:43:55.120Z,85.92
2023-03-07T04:46:22.002Z,86.20
2023-03-07T04:48:48.865Z,86.13
2023-03-07T04:51:15.917Z,85.74
2023-03-07T04:53:43.012Z,86.47
2023-03-07T04:56:10.518Z,86.63
2023-03-07T04:58:37.861Z,86.69
2023-03-07T05:01:05.582Z,86.38
2023-03-07T05:03:34.341Z,85.67
2023-03-07T05:06:08.257Z,85.78
2023-03-07T05:08:35.460Z,85.60
2023-03-07T05:11:02.939Z,85.54
2023-03-07T05:13:30.015Z,85.51
2023-03-07T05:15:58.682Z,85.30
2023-03-07T05:18:26.662Z,84.92
2023-03-07T05:20:53.528Z,84.86
2023-03-07T05:23:21.203Z,84.48
2023-03-07T05:25:48.052Z,84.88
2023-03-07T05:28:16.882Z,84.91
2023-03-07T05:30:45.219Z,84.52
2023-03-07T05:33:12.223Z,84.05
2023-03-07T05:35:39.522Z,84.01
2023-03-07T05:38:06.982Z,84.01
2023-03-07T05:40:33.903Z,83.67
2023-03-07T05:43:00.883Z,83.35
2023-03-07T05:45:27.733Z,83.64
2023-03-07T05:47:54.569Z,83.12
2023-03-07T05:50:22.254Z,83.68
2023-03-07T05:52:49.120Z,83.01
2023-03-07T05:55:16.081Z,82.67
2023-03-07T05:57:42.898Z,82.91
2023-03-07T06:00:12.372Z,82.71
2023-03-07T06:02:39.165Z,83.13
2023-03-07T06:05:06.293Z,82.74
2023-03-07T06:07:33.088Z,82.48
2023-03-07T06:09:59.883Z,82.81
2023-03-07T06:12:26.772Z,82.26
2023-03-07T06:14:53.582Z,82.44
2023-03-07T06:17:20.489Z,82.58
2023-03-07T06:19:47.356Z,82.69
2023-03-07T06:22:14.248Z,82.38
2023-03-07T06:24:41.108Z,82.45
2023-03-07T06:27:07.954Z,82.15
2023-03-07T06:29:34.778Z,82.01
2023-03-07T06:32:01.586Z,81.59
2023-03-07T06:34:28.476Z,81.12
2023-03-07T06:36:55.304Z,81.61
2023-03-07T06:39:22.245Z,81.35
2023-03-07T06:41:51.993Z,81.21
2023-03-07T06:44:19.142Z,81.08
2023-03-07T06:46:46.309Z,80.88
2023-03-07T06:49:13.404Z,80.40
2023-03-07T06:51:40.332Z,79.75
2023-03-07T06:54:07.416Z,80.37
2023-03-07T06:56:35.199Z,80.09
2023-03-07T06:59:02.490Z,80.16
2023-03-07T07:01:29.873Z,80.27
2023-03-07T07:03:57.305Z,79.52
2023-03-07T07:06:24.304Z,79.18
2023-03-07T07:08:55.939Z,78.88
2023-03-07T07:11:24.364Z,78.69
2023-03-07T07:13:51.321Z,78.88
2023-03-07T07:16:18.758Z,78.89
2023-03-07T07:18:46.028Z,77.56
2023-03-07T07:21:12.910Z,76.70
2023-03-07T07:23:40.036Z,75.53
2023-03-07T07:26:06.992Z,74.45
2023-03-07T07:28:33.888Z,73.93
2023-03-07T07:31:00.780Z,73.62
2023-03-07T07:33:27.594Z,73.75
2023-03-07T07:35:54.500Z,73.28
2023-03-07T07:38:21.344Z,72.81
2023-03-07T07:40:48.194Z,73.36
2023-03-07T07:43:16.927Z,72.84
2023-03-07T07:45:44.185Z,73.19
2023-03-07T07:48:11.048Z,72.86
2023-03-07T07:50:37.933Z,73.24
2023-03-07T07:53:04.789Z,72.20
2023-03-07T07:55:31.661Z,71.79
2023-03-07T07:57:58.457Z,72.01
2023-03-07T08:00:25.772Z,70.93
2023-03-07T08:02:52.736Z,70.05
2023-03-07T08:05:21.036Z,69.12
2023-03-07T08:07:48.346Z,69.15
2023-03-07T08:10:16.455Z,68.19
2023-03-07T08:12:52.809Z,67.52
2023-03-07T08:15:23.744Z,67.39
2023-03-07T08:17:51.276Z,66.89
2023-03-07T08:20:22.174Z,66.38
2023-03-07T08:22:53.112Z,65.17
2023-03-07T08:25:23.717Z,63.23
2023-03-07T08:27:54.884Z,63.35
2023-03-07T08:30:28.278Z,63.76
2023-03-07T08:32:56.450Z,63.92
2023-03-07T08:35:25.789Z,63.11
2023-03-07T08:38:02.190Z,63.43
2023-03-07T08:40:30.589Z,61.73
2023-03-07T08:42:59.562Z,60.13
2023-03-07T08:45:26.817Z,58.54
2023-03-07T08:47:55.447Z,56.54
2023-03-07T08:50:26.198Z,54.93
2023-03-07T08:52:53.196Z,55.25
2023-03-07T08:55:20.392Z,54.78
2023-03-07T08:57:47.704Z,54.24
2023-03-07T09:00:15.528Z,54.74
2023-03-07T09:02:42.390Z,52.46
2023-03-07T09:05:09.969Z,51.40
2023-03-07T09:07:36.864Z,50.98
2023-03-07T09:10:05.824Z,48.92
2023-03-07T09:12:34.018Z,47.14
2023-03-07T09:15:00.913Z,45.39
2023-03-07T09:17:27.907Z,44.60
2023-03-07T09:19:56.452Z,45.22
2023-03-07T09:22:23.336Z,44.91
2023-03-07T09:24:50.149Z,45.28
2023-03-07T09:27:16.999Z,44.69
2023-03-07T09:29:43.826Z,43.70
2023-03-07T09:32:13.737Z,41.37
2023-03-07T09:34:40.640Z,38.60
2023-03-07T09:37:07.467Z,36.18
2023-03-07T09:39:34.309Z,34.44
2023-03-07T09:42:25.109Z,33.33
2023-03-07T09:45:15.048Z,33.09
2023-03-07T09:47:50.660Z,34.20
2023-03-07T09:50:40.846Z,36.39
2023-03-07T09:53:37.885Z,37.58
2023-03-07T09:56:27.321Z,39.21
2023-03-07T09:59:41.095Z,40.44
2023-03-07T10:02:36.001Z,42.23
2023-03-07T10:05:08.208Z,43.29
2023-03-07T10:07:35.994Z,43.83
2023-03-07T10:10:20.019Z,44.56
2023-03-07T10:13:25.668Z,45.26
2023-03-07T10:15:56.362Z,45.32
2023-03-07T10:18:48.246Z,45.49
2023-03-07T10:21:47.754Z,45.44
2023-03-07T10:25:08.400Z,44.13
2023-03-07T10:27:35.360Z,44.14
2023-03-07T10:30:15.680Z,44.47
2023-03-07T10:32:54.688Z,44.88
2023-03-07T10:35:24.969Z,45.01
2023-03-07T10:38:13.789Z,44.32
2023-03-07T10:40:48.850Z,43.86
2023-03-07T10:43:33.947Z,43.89
2023-03-07T10:46:28.324Z,42.59
2023-03-07T10:49:18.202Z,39.62
2023-03-07T10:52:17.678Z,39.72
2023-03-07T10:54:44.492Z,41.54
2023-03-07T10:57:17.696Z,40.39
2023-03-07T10:59:50.429Z,42.01
2023-03-07T11:02:46.835Z,42.39
2023-03-07T11:05:36.617Z,43.02
2023-03-07T11:08:35.387Z,43.04
2023-03-07T11:11:04.667Z,42.75
2023-03-07T11:13:31.932Z,43.27
2023-03-07T11:16:20.785Z,43.71
2023-03-07T11:18:48.163Z,43.56
2023-03-07T11:21:35.177Z,44.15
2023-03-07T11:24:26.731Z,44.16
2023-03-07T11:26:56.121Z,44.61
2023-03-07T11:29:23.222Z,45.26
2023-03-07T11:32:05.873Z,44.67
2023-03-07T11:34:59.955Z,44.88
2023-03-07T11:37:45.638Z,45.07
2023-03-07T11:40:37.342Z,45.46
2023-03-07T11:43:47.928Z,45.81
2023-03-07T11:46:48.562Z,46.03
2023-03-07T11:49:43.650Z,45.78
2023-03-07T11:52:37.368Z,45.77
2023-03-07T11:55:19.246Z,46.55
2023-03-07T11:58:23.376Z,46.44
2023-03-07T12:00:59.076Z,46.58
2023-03-07T12:03:46.566Z,46.79
2023-03-07T12:06:49.817Z,46.86
2023-03-07T12:09:37.036Z,48.14
2023-03-07T12:13:17.906Z,48.64
2023-03-07T12:16:24.215Z,48.71
2023-03-07T12:19:11.129Z,49.41
2023-03-07T12:22:09.141Z,48.82
2023-03-07T12:24:43.132Z,48.88
2023-03-07T12:27:25.022Z,49.22
2023-03-07T12:30:23.415Z,48.75
2023-03-07T12:32:51.389Z,49.01
2023-03-07T12:35:21.227Z,50.00
2023-03-07T12:38:03.864Z,50.13
2023-03-07T12:40:42.163Z,49.79
2023-03-07T12:43:20.871Z,50.15
2023-03-07T12:46:11.667Z,50.61
2023-03-07T12:48:53.943Z,50.70
2023-03-07T12:51:40.961Z,50.94
2023-03-07T12:54:21.450Z,51.37
2023-03-07T12:57:38.282Z,51.88
2023-03-07T13:00:09.164Z,52.15
2023-03-07T13:02:53.413Z,51.86
2023-03-07T13:05:22.095Z,51.73
2023-03-07T13:07:50.018Z,51.72
2023-03-07T13:10:24.758Z,52.18
2023-03-07T13:12:52.764Z,51.79
2023-03-07T13:15:19.506Z,51.83
2023-03-07T13:17:46.215Z,52.37
2023-03-07T13:20:15.735Z,51.30
2023-03-07T13:22:42.989Z,52.25
2023-03-07T13:25:51.553Z,51.42
2023-03-07T13:28:42.409Z,51.72
2023-03-07T13:31:15.364Z,52.50
2023-03-07T13:33:42.627Z,52.38
2023-03-07T13:36:38.897Z,52.46
2023-03-07T13:40:01.021Z,52.29
2023-03-07T13:42:48.422Z,52.76
2023-03-07T13:45:40.312Z,53.12
2023-03-07T13:48:33.107Z,52.75
2023-03-07T13:51:02.836Z,52.69
2023-03-07T13:53:57.127Z,53.47
2023-03-07T13:56:29.002Z,52.56
2023-03-07T13:59:09.611Z,53.04
2023-03-07T14:01:40.498Z,53.52
2023-03-07T14:04:40.347Z,53.30
2023-03-07T14:07:32.332Z,53.48
2023-03-07T14:10:27.908Z,54.06
2023-03-07T14:13:09.880Z,53.90
2023-03-07T14:16:20.331Z,53.77
2023-03-07T14:19:15.053Z,53.89
2023-03-07T14:22:17.038Z,54.06
2023-03-07T14:25:28.075Z,54.08
2023-03-07T14:28:01.128Z,54.33
2023-03-07T14:30:32.195Z,55.04
2023-03-07T14:33:00.587Z,55.26
2023-03-07T14:35:45.040Z,54.87
2023-03-07T14:38:22.743Z,54.82
2023-03-07T14:41:22.345Z,55.37
2023-03-07T14:44:14.282Z,55.24
2023-03-07T14:47:22.551Z,55.72
2023-03-07T14:50:18.680Z,55.86
2023-03-07T14:52:47.023Z,56.14
2023-03-07T14:55:23.365Z,56.08
2023-03-07T14:57:53.428Z,57.01
2023-03-07T15:00:20.440Z,57.05
2023-03-07T15:03:07.658Z,57.83
2023-03-07T15:05:37.439Z,58.33
2023-03-07T15:08:17.446Z,59.01
2023-03-07T15:10:48.301Z,59.73
2023-03-07T15:13:45.756Z,59.63
2023-03-07T15:16:19.998Z,60.38
2023-03-07T15:18:58.849Z,60.11
2023-03-07T15:21:32.306Z,61.33
2023-03-07T15:24:06.426Z,60.66
2023-03-07T15:26:33.384Z,60.96
2023-03-07T15:29:05.440Z,60.75
2023-03-07T15:31:54.609Z,60.94
2023-03-07T15:34:39.045Z,61.46
2023-03-07T15:37:22.757Z,60.58
2023-03-07T15:40:24.394Z,60.73
2023-03-07T15:42:56.304Z,61.65
2023-03-07T15:45:31.940Z,61.15
2023-03-07T15:48:16.934Z,61.66
2023-03-07T15:50:43.992Z,61.34
2023-03-07T15:53:27.495Z,61.60
2023-03-07T15:56:05.121Z,61.35
2023-03-07T15:58:36.230Z,60.91
2023-03-07T16:01:23.424Z,60.76
2023-03-07T16:03:57.676Z,60.96
2023-03-07T16:06:46.763Z,61.78
2023-03-07T16:09:17.259Z,61.70
2023-03-07T16:11:46.236Z,62.11
2023-03-07T16:14:32.388Z,62.04
2023-03-07T16:17:16.921Z,61.89
2023-03-07T16:19:43.828Z,61.51
2023-03-07T16:22:19.212Z,62.21
2023-03-07T16:24:46.205Z,62.03
2023-03-07T16:27:25.769Z,60.84
2023-03-07T16:29:53.999Z,61.82
2023-03-07T16:32:22.836Z,61.29
2023-03-07T16:34:50.157Z,61.97
2023-03-07T16:37:17.633Z,61.82
2023-03-07T16:39:44.574Z,61.54
2023-03-07T16:42:20.796Z,60.90
2023-03-07T16:44:49.273Z,61.60
2023-03-07T16:47:18.156Z,61.25
2023-03-07T16:49:46.795Z,60.91
2023-03-07T16:52:14.396Z,60.70
2023-03-07T16:54:41.372Z,60.94
2023-03-07T16:57:15.100Z,61.08
2023-03-07T16:59:47.118Z,60.18
2023-03-07T17:02:28.158Z,60.83
2023-03-07T17:04:55.025Z,59.95
2023-03-07T17:07:23.372Z,60.89
2023-03-07T17:09:50.858Z,60.47
2023-03-07T17:12:23.111Z,60.30
2023-03-07T17:14:50.017Z,60.45
2023-03-07T17:17:27.641Z,58.94
2023-03-07T17:19:54.511Z,60.09
2023-03-07T17:22:21.351Z,58.90
2023-03-07T17:24:48.193Z,59.46
2023-03-07T17:27:15.092Z,59.57
2023-03-07T17:29:49.979Z,59.82
2023-03-07T17:32:17.256Z,59.07
2023-03-07T17:34:44.353Z,59.95
2023-03-07T17:37:12.289Z,59.74
2023-03-07T17:39:40.999Z,59.18
2023-03-07T17:42:08.251Z,59.84
2023-03-07T17:44:35.175Z,59.74
2023-03-07T17:47:02.018Z,58.88
2023-03-07T17:49:37.630Z,60.00
2023-03-07T17:52:06.538Z,59.82
2023-03-07T17:54:34.053Z,59.38
2023-03-07T17:57:02.303Z,59.79
2023-03-07T17:59:32.527Z,59.63
2023-03-07T18:01:59.649Z,60.12
2023-03-07T18:04:28.537Z,59.49
2023-03-07T18:06:55.360Z,59.14
2023-03-07T18:09:23.262Z,59.46
2023-03-07T18:11:50.166Z,60.01
2023-03-07T18:14:17.463Z,59.18
2023-03-07T18:16:44.928Z,59.64
2023-03-07T18:19:24.163Z,59.52
2023-03-07T18:21:53.168Z,60.18
2023-03-07T18:24:26.245Z,59.29
2023-03-07T18:26:54.861Z,60.12
2023-03-07T18:29:23.186Z,59.17
2023-03-07T18:31:50.120Z,59.17
2023-03-07T18:34:16.974Z,59.90
2023-03-07T18:36:44.068Z,59.25
2023-03-07T18:39:11.126Z,58.90
2023-03-07T18:41:38.214Z,59.62
2023-03-07T18:44:05.303Z,59.81
2023-03-07T18:46:32.797Z,59.01
2023-03-07T18:49:01.028Z,59.57
2023-03-07T18:51:28.075Z,60.81
2023-03-07T18:54:00.830Z,59.37
2023-03-07T18:56:28.500Z,59.99
2023-03-07T18:58:59.410Z,59.84
2023-03-07T19:01:30.588Z,59.20
2023-03-07T19:04:01.318Z,59.04
2023-03-07T19:06:42.050Z,59.44
2023-03-07T19:09:19.553Z,59.76
2023-03-07T19:11:47.615Z,59.35
2023-03-07T19:14:14.950Z,59.59
2023-03-07T19:16:41.968Z,60.28
2023-03-07T19:19:08.853Z,60.15
2023-03-07T19:21:35.884Z,59.47
2023-03-07T19:24:04.820Z,60.20
2023-03-07T19:26:31.844Z,60.37
2023-03-07T19:28:58.844Z,60.25
2023-03-07T19:31:29.620Z,60.15
2023-03-07T19:33:57.472Z,60.32
2023-03-07T19:36:29.544Z,59.88
2023-03-07T19:38:59.108Z,59.79
2023-03-07T19:41:28.625Z,59.96
2023-03-07T19:43:57.501Z,60.12
2023-03-07T19:46:24.963Z,59.96
2023-03-07T19:48:52.083Z,60.14
2023-03-07T19:51:25.337Z,60.43
2023-03-07T19:53:54.779Z,60.39
2023-03-07T19:56:29.461Z,59.96
2023-03-07T19:58:59.070Z,59.83
2023-03-07T20:01:27.747Z,58.95
2023-03-07T20:03:55.279Z,59.78
2023-03-07T20:06:26.997Z,59.26
2023-03-07T20:08:55.222Z,59.56
2023-03-07T20:11:28.721Z,59.73
2023-03-07T20:13:58.082Z,59.54
2023-03-07T20:16:29.042Z,59.84
2023-03-07T20:19:02.633Z,58.97
2023-03-07T20:21:30.543Z,59.09
2023-03-07T20:24:00.722Z,59.11
2023-03-07T20:26:37.996Z,59.12
2023-03-07T20:29:06.771Z,58.70
2023-03-07T20:31:35.986Z,58.39
2023-03-07T20:34:03.208Z,58.38
2023-03-07T20:36:35.826Z,59.25
2023-03-07T20:39:07.725Z,58.93
2023-03-07T20:41:35.304Z,58.86
2023-03-07T20:44:05.914Z,59.42
2023-03-07T20:46:33.185Z,58.65
2023-03-07T20:49:01.736Z,58.94
2023-03-07T20:51:32.089Z,58.72
2023-03-07T20:54:04.585Z,58.54
2023-03-07T20:56:34.207Z,58.57
2023-03-07T20:59:01.665Z,58.50
2023-03-07T21:01:31.636Z,57.96
2023-03-07T21:04:08.068Z,59.00
2023-03-07T21:06:36.379Z,58.12
2023-03-07T21:09:07.934Z,58.30
2023-03-07T21:11:40.540Z,58.15
2023-03-07T21:14:08.315Z,58.19
2023-03-07T21:16:35.146Z,57.46
2023-03-07T21:19:05.254Z,57.26
2023-03-07T21:21:33.852Z,57.16
2023-03-07T21:24:00.960Z,57.24
2023-03-07T21:26:31.222Z,57.04
2023-03-07T21:28:59.217Z,57.93
2023-03-07T21:31:28.532Z,57.14
2023-03-07T21:33:59.259Z,57.91
2023-03-07T21:36:27.680Z,58.21
2023-03-07T21:38:55.226Z,57.74
2023-03-07T21:41:24.833Z,57.21
2023-03-07T21:43:53.266Z,56.90
2023-03-07T21:46:20.458Z,56.92
2023-03-07T21:48:48.735Z,57.10
2023-03-07T21:51:15.645Z,57.79
2023-03-07T21:53:42.643Z,56.92
2023-03-07T21:56:17.047Z,57.03
2023-03-07T21:58:48.520Z,57.30
2023-03-07T22:01:21.151Z,57.37
2023-03-07T22:03:48.295Z,56.62
2023-03-07T22:06:16.727Z,56.78
2023-03-07T22:08:43.653Z,57.78
2023-03-07T22:11:12.249Z,58.10
2023-03-07T22:13:40.681Z,56.96
2023-03-07T22:16:21.077Z,56.89
2023-03-07T22:18:55.967Z,57.27
2023-03-07T22:21:25.966Z,55.47
2023-03-07T22:23:57.793Z,56.09
2023-03-07T22:26:25.452Z,55.99
2023-03-07T22:28:53.508Z,55.91
2023-03-07T22:31:20.586Z,56.79
2023-03-07T22:33:47.468Z,55.93
2023-03-07T22:36:14.800Z,56.16
2023-03-07T22:38:42.789Z,56.20
2023-03-07T22:41:17.796Z,56.43
2023-03-07T22:43:44.921Z,56.67
2023-03-07T22:46:12.079Z,56.89
2023-03-07T22:48:39.019Z,56.06
2023-03-07T22:51:11.966Z,55.99
2023-03-07T22:53:38.834Z,56.34
2023-03-07T22:56:17.998Z,56.55
2023-03-07T22:58:45.628Z,56.50
2023-03-07T23:01:27.649Z,56.32
2023-03-07T23:03:56.631Z,57.14
2023-03-07T23:06:26.217Z,57.38
2023-03-07T23:08:54.032Z,57.06
2023-03-07T23:11:23.544Z,56.98
2023-03-07T23:13:50.814Z,57.38
2023-03-07T23:16:21.697Z,56.52
2023-03-07T23:18:50.745Z,57.41
2023-03-07T23:21:20.888Z,57.07
2023-03-07T23:23:48.286Z,56.59
2023-03-07T23:26:26.213Z,56.79
2023-03-07T23:28:53.339Z,57.91
2023-03-07T23:31:30.019Z,56.88
2023-03-07T23:33:59.973Z,57.02
2023-03-07T23:36:29.535Z,56.52
2023-03-07T23:38:58.439Z,56.97
2023-03-07T23:41:25.801Z,56.62
2023-03-07T23:43:57.885Z,57.18
2023-03-07T23:46:25.131Z,56.75
2023-03-07T23:48:53.400Z,57.13
2023-03-07T23:51:21.673Z,57.45
2023-03-07T23:53:48.708Z,57.82
2023-03-07T23:56:16.293Z,58.25
2023-03-07T23:58:47.426Z,57.70
